createdAt,value
2023-05-05T00:01:36.008Z,96363.84
2023-05-05T00:05:50.026Z,96344.59
2023-05-05T00:10:02.701Z,96336.16
2023-05-05T00:14:25.189Z,96372.31
2023-05-05T00:18:38.297Z,96377.59
2023-05-05T00:22:50.763Z,96373.09
2023-05-05T00:27:13.266Z,96367.16
2023-05-05T00:31:25.771Z,96369.03
2023-05-05T00:35:38.251Z,96350.34
2023-05-05T00:39:50.748Z,96370.13
2023-05-05T00:44:03.558Z,96371.09
2023-05-05T00:48:17.787Z,96362.44
2023-05-05T00:52:30.782Z,96385.19
2023-05-05T00:56:43.344Z,96378.38
2023-05-05T01:01:00.914Z,96364.97
2023-05-05T01:05:15.822Z,96347.94
2023-05-05T01:10:15.303Z,96353.97
2023-05-05T01:14:40.571Z,96360.44
2023-05-05T01:19:17.456Z,96358.25
2023-05-05T01:24:16.652Z,96357.25
2023-05-05T01:29:02.297Z,96348.66
2023-05-05T01:33:21.087Z,96351.53
2023-05-05T01:37:46.816Z,96351.75
2023-05-05T01:42:15.808Z,96343.06
2023-05-05T01:46:28.770Z,96351.97
2023-05-05T01:50:42.785Z,96347.22
2023-05-05T01:54:56.712Z,96350.06
2023-05-05T01:59:11.064Z,96361.34
2023-05-05T02:03:24.636Z,96358.28
2023-05-05T02:07:37.707Z,96368.66
2023-05-05T02:11:50.269Z,96364.09
2023-05-05T02:16:05.813Z,96357.69
2023-05-05T02:20:19.537Z,96359.69
2023-05-05T02:24:32.054Z,96370.75
2023-05-05T02:29:08.843Z,96376.69
2023-05-05T02:33:23.736Z,96371.78
2023-05-05T02:37:37.168Z,96369.88
2023-05-05T02:41:52.980Z,96357.91
2023-05-05T02:46:05.481Z,96371.84
2023-05-05T02:50:18.115Z,96373.28
2023-05-05T02:54:33.104Z,96373.69
2023-05-05T02:59:32.062Z,96367.13
2023-05-05T03:03:54.602Z,96373.91
2023-05-05T03:08:18.304Z,96348.09
2023-05-05T03:12:56.194Z,96374.66
2023-05-05T03:17:12.563Z,96376.09
2023-05-05T03:21:25.584Z,96374.25
2023-05-05T03:25:51.162Z,96373.91
2023-05-05T03:30:03.671Z,96383.28
2023-05-05T03:34:16.311Z,96382.13
2023-05-05T03:38:28.768Z,96374.53
2023-05-05T03:42:41.545Z,96366.19
2023-05-05T03:46:54.016Z,96373.75
2023-05-05T03:51:06.682Z,96348.31
2023-05-05T03:55:19.256Z,96371.09
2023-05-05T03:59:32.053Z,96381.72
2023-05-05T04:03:54.583Z,96339.41
2023-05-05T04:08:08.934Z,96371.56
2023-05-05T04:12:21.689Z,96374.81
2023-05-05T04:16:35.826Z,96382.31
2023-05-05T04:20:48.506Z,96389.44
2023-05-05T04:25:01.100Z,96363.28
2023-05-05T04:29:14.040Z,96363.81
2023-05-05T04:33:26.892Z,96377.50
2023-05-05T04:37:39.341Z,96380.00
2023-05-05T04:41:51.762Z,96369.91
2023-05-05T04:46:06.754Z,96377.16
2023-05-05T04:50:19.289Z,96392.34
2023-05-05T04:54:41.924Z,96388.34
2023-05-05T04:58:54.423Z,96391.16
2023-05-05T05:03:08.960Z,96396.88
2023-05-05T05:07:31.753Z,96394.91
2023-05-05T05:11:44.154Z,96393.56
2023-05-05T05:15:56.690Z,96399.69
2023-05-05T05:20:10.024Z,96399.06
2023-05-05T05:24:22.850Z,96398.84
2023-05-05T05:28:35.647Z,96391.22
2023-05-05T05:32:48.118Z,96401.91
2023-05-05T05:37:00.725Z,96404.88
2023-05-05T05:41:23.170Z,96395.75
2023-05-05T05:45:35.650Z,96394.44
2023-05-05T05:49:58.081Z,96410.38
2023-05-05T05:54:20.545Z,96402.00
2023-05-05T05:58:33.058Z,96406.59
2023-05-05T06:02:45.787Z,96405.75
2023-05-05T06:06:58.395Z,96408.38
2023-05-05T06:11:10.841Z,96409.81
2023-05-05T06:15:23.317Z,96410.31
2023-05-05T06:19:35.960Z,96420.41
2023-05-05T06:23:48.632Z,96411.38
2023-05-05T06:28:01.372Z,96419.94
2023-05-05T06:32:14.835Z,96415.19
2023-05-05T06:36:27.317Z,96416.09
2023-05-05T06:40:39.832Z,96421.56
2023-05-05T06:45:02.333Z,96426.69
2023-05-05T06:49:14.818Z,96427.16
2023-05-05T06:53:27.261Z,96427.91
2023-05-05T06:57:39.736Z,96420.84
2023-05-05T07:01:52.635Z,96419.47
2023-05-05T07:06:05.474Z,96421.84
2023-05-05T07:10:18.173Z,96427.41
2023-05-05T07:14:40.711Z,96431.91
2023-05-05T07:18:53.276Z,96423.00
2023-05-05T07:23:06.070Z,96424.53
2023-05-05T07:27:18.583Z,96411.59
2023-05-05T07:31:31.243Z,96417.78
2023-05-05T07:35:43.749Z,96419.13
2023-05-05T07:39:56.411Z,96417.13
2023-05-05T07:44:09.420Z,96424.06
2023-05-05T07:48:22.148Z,96421.03
2023-05-05T07:52:47.920Z,96423.81
2023-05-05T07:57:04.282Z,96423.53
2023-05-05T08:01:16.777Z,96414.59
2023-05-05T08:05:39.347Z,96418.75
2023-05-05T08:09:52.458Z,96419.28
2023-05-05T08:14:04.880Z,96426.25
2023-05-05T08:18:17.285Z,96408.19
2023-05-05T08:22:30.275Z,96413.53
2023-05-05T08:26:42.826Z,96390.56
2023-05-05T08:30:55.371Z,96401.63
2023-05-05T08:35:08.623Z,96402.41
2023-05-05T08:39:21.516Z,96398.38
2023-05-05T08:43:35.670Z,96401.03
2023-05-05T08:47:48.247Z,96400.59
2023-05-05T08:52:04.064Z,96393.66
2023-05-05T08:56:16.844Z,96406.44
2023-05-05T09:00:29.691Z,96398.53
2023-05-05T09:04:43.195Z,96413.59
2023-05-05T09:08:58.925Z,96420.50
2023-05-05T09:13:12.224Z,96406.84
2023-05-05T09:17:26.259Z,96406.53
2023-05-05T09:21:49.518Z,96417.63
2023-05-05T09:26:09.592Z,96408.38
2023-05-05T09:30:27.710Z,96408.59
2023-05-05T09:34:40.322Z,96404.00
2023-05-05T09:39:07.131Z,96394.50
2023-05-05T09:43:22.700Z,96393.72
2023-05-05T09:47:37.091Z,96398.31
2023-05-05T09:51:59.617Z,96392.66
2023-05-05T09:56:12.277Z,96383.41
2023-05-05T10:00:39.429Z,96392.25
2023-05-05T10:05:06.070Z,96395.31
2023-05-05T10:09:18.614Z,96384.22
2023-05-05T10:13:31.729Z,96389.19
2023-05-05T10:22:09.172Z,96375.13
2023-05-05T10:26:24.059Z,96372.13
2023-05-05T10:30:44.406Z,96374.22
2023-05-05T10:35:04.516Z,96371.53
2023-05-05T10:39:27.545Z,96370.59
2023-05-05T10:43:40.842Z,96360.44
2023-05-05T10:47:57.912Z,96348.38
2023-05-05T10:52:27.020Z,96353.22
2023-05-05T10:56:41.983Z,96358.13
2023-05-05T11:00:54.517Z,96330.84
2023-05-05T11:05:10.902Z,96343.09
2023-05-05T11:09:33.913Z,96332.97
2023-05-05T11:13:46.375Z,96333.91
2023-05-05T11:18:06.673Z,96318.66
2023-05-05T11:22:20.768Z,96316.56
2023-05-05T11:26:53.530Z,96309.53
2023-05-05T11:31:05.898Z,96311.09
2023-05-05T11:35:55.333Z,96303.97
2023-05-05T11:40:22.781Z,96299.47
2023-05-05T11:44:36.519Z,96290.75
2023-05-05T11:48:50.787Z,96299.91
2023-05-05T11:53:03.417Z,96279.59
2023-05-05T11:57:21.730Z,96291.47
2023-05-05T12:01:44.346Z,96282.28
2023-05-05T12:05:56.788Z,96280.78
2023-05-05T12:10:09.853Z,96263.66
2023-05-05T12:14:24.053Z,96285.78
2023-05-05T12:18:36.846Z,96262.22
2023-05-05T12:22:49.340Z,96272.34
2023-05-05T12:27:12.416Z,96265.25
2023-05-05T12:31:38.931Z,96268.28
2023-05-05T12:35:51.871Z,96264.16
2023-05-05T12:40:06.985Z,96249.38
2023-05-05T12:44:19.499Z,96262.28
2023-05-05T12:48:32.462Z,96258.47
2023-05-05T12:52:46.319Z,96245.81
2023-05-05T12:56:59.385Z,96220.34
2023-05-05T13:01:11.991Z,96232.84
2023-05-05T13:05:36.946Z,96225.63
2023-05-05T13:09:51.307Z,96227.16
2023-05-05T13:14:04.517Z,96226.84
2023-05-05T13:18:16.997Z,96211.19
2023-05-05T13:22:29.480Z,96206.63
2023-05-05T13:26:41.963Z,96198.97
2023-05-05T13:30:55.269Z,96191.00
2023-05-05T13:35:08.748Z,96170.19
2023-05-05T13:39:21.602Z,96169.16
2023-05-05T13:43:35.704Z,96161.84
2023-05-05T13:47:48.818Z,96172.34
2023-05-05T13:52:01.290Z,96173.34
2023-05-05T13:56:26.949Z,96154.34
2023-05-05T14:00:39.486Z,96126.16
2023-05-05T14:04:51.905Z,96137.56
2023-05-05T14:09:12.119Z,96139.91
2023-05-05T14:13:24.589Z,96132.13
2023-05-05T14:17:37.139Z,96122.56
2023-05-05T14:21:49.610Z,96123.97
2023-05-05T14:26:02.227Z,96123.28
2023-05-05T14:30:15.059Z,96108.09
2023-05-05T14:34:27.570Z,96109.34
2023-05-05T14:38:40.275Z,96125.72
2023-05-05T14:42:52.900Z,96123.34
2023-05-05T14:47:05.467Z,96112.56
2023-05-05T14:51:17.985Z,96102.19
2023-05-05T14:55:30.432Z,96102.13
2023-05-05T14:59:53.894Z,96086.47
2023-05-05T15:04:06.597Z,96093.09
2023-05-05T15:08:22.797Z,96098.63
2023-05-05T15:12:35.354Z,96095.78
2023-05-05T15:16:48.502Z,96099.97
2023-05-05T15:21:00.979Z,96076.97
2023-05-05T15:25:15.568Z,96092.00
2023-05-05T15:29:29.067Z,96093.09
2023-05-05T15:33:50.294Z,96085.03
2023-05-05T15:38:03.738Z,96085.13
2023-05-05T15:42:16.216Z,96079.53
2023-05-05T15:46:38.743Z,96071.69
2023-05-05T15:50:53.938Z,96077.50
2023-05-05T15:55:07.616Z,96075.19
2023-05-05T15:59:27.632Z,96067.50
2023-05-05T16:03:40.837Z,96072.81
2023-05-05T16:07:54.456Z,96065.47
2023-05-05T16:12:07.020Z,96065.53
2023-05-05T16:16:30.101Z,96066.81
2023-05-05T16:22:05.205Z,96070.19
2023-05-05T16:26:17.840Z,96055.28
2023-05-05T16:30:30.321Z,96058.25
2023-05-05T16:34:42.772Z,96056.94
2023-05-05T16:38:55.798Z,96047.47
2023-05-05T16:43:08.239Z,96033.03
2023-05-05T16:47:20.693Z,96049.41
2023-05-05T16:51:33.158Z,96039.47
2023-05-05T16:55:45.665Z,96037.66
2023-05-05T17:00:10.100Z,96045.13
2023-05-05T17:04:32.548Z,96012.84
2023-05-05T17:08:45.355Z,96030.13
2023-05-05T17:12:57.864Z,96028.03
2023-05-05T17:17:10.424Z,96005.94
2023-05-05T17:21:22.882Z,96017.41
2023-05-05T17:25:36.099Z,96006.00
2023-05-05T17:29:58.691Z,96006.09
2023-05-05T17:34:11.943Z,96006.19
2023-05-05T17:38:34.485Z,96000.63
2023-05-05T17:42:46.900Z,96007.56
2023-05-05T17:47:04.985Z,95996.25
2023-05-05T17:51:17.450Z,96000.97
2023-05-05T17:55:29.918Z,96000.03
2023-05-05T17:59:42.383Z,95997.44
2023-05-05T18:03:54.929Z,95994.88
2023-05-05T18:08:07.753Z,95977.81
2023-05-05T18:12:21.161Z,95957.66
2023-05-05T18:16:33.684Z,95966.84
2023-05-05T18:20:46.148Z,95971.44
2023-05-05T18:25:00.504Z,96003.72
2023-05-05T18:29:13.121Z,96011.00
2023-05-05T18:33:25.627Z,96026.75
2023-05-05T18:37:38.123Z,96033.91
2023-05-05T18:41:50.869Z,96035.56
2023-05-05T18:46:03.705Z,96060.38
2023-05-05T18:50:16.611Z,96052.88
2023-05-05T18:54:29.748Z,96074.09
2023-05-05T18:58:42.265Z,96134.47
2023-05-05T19:02:55.212Z,96293.94
2023-05-05T19:07:08.145Z,96312.84
2023-05-05T19:11:30.669Z,96334.56
2023-05-05T19:15:43.200Z,96366.44
2023-05-05T19:19:55.615Z,96354.56
2023-05-05T19:24:10.158Z,96357.38
2023-05-05T19:28:22.764Z,96336.94
2023-05-05T19:32:35.464Z,96359.94
2023-05-05T19:36:48.547Z,96341.03
2023-05-05T19:41:01.369Z,96339.91
2023-05-05T19:45:13.823Z,96373.69
2023-05-05T19:49:26.290Z,96368.22
2023-05-05T19:53:40.799Z,96345.31
2023-05-05T19:57:53.316Z,96343.94
2023-05-05T20:02:05.781Z,96340.72
2023-05-05T20:06:18.218Z,96337.94
2023-05-05T20:10:30.669Z,96349.25
2023-05-05T20:14:43.389Z,96352.22
2023-05-05T20:18:55.871Z,96355.13
2023-05-05T20:23:08.467Z,96356.91
2023-05-05T20:27:21.716Z,96365.88
2023-05-05T20:31:35.648Z,96373.22
2023-05-05T20:35:51.830Z,96377.31
2023-05-05T20:40:04.632Z,96387.63
2023-05-05T20:44:17.384Z,96377.69
2023-05-05T20:48:30.594Z,96384.00
2023-05-05T20:52:53.337Z,96375.25
2023-05-05T20:57:10.143Z,96383.00
2023-05-05T21:01:22.543Z,96372.41
2023-05-05T21:05:36.680Z,96357.59
2023-05-05T21:09:49.173Z,96357.88
2023-05-05T21:14:01.576Z,96347.63
2023-05-05T21:18:26.503Z,96349.44
2023-05-05T21:22:39.000Z,96356.41
2023-05-05T21:26:51.420Z,96342.53
2023-05-05T21:31:21.356Z,96343.31
2023-05-05T21:35:34.821Z,96336.44
2023-05-05T21:39:47.281Z,96352.88
2023-05-05T21:44:00.129Z,96349.44
2023-05-05T21:48:12.592Z,96353.84
2023-05-05T21:52:28.955Z,96317.59
2023-05-05T21:56:41.749Z,96341.91
2023-05-05T22:00:54.240Z,96340.94
2023-05-05T22:05:16.714Z,96334.13
2023-05-05T22:09:29.188Z,96334.72
2023-05-05T22:13:42.468Z,96334.72
2023-05-05T22:17:55.029Z,96342.38
2023-05-05T22:22:07.788Z,96338.34
2023-05-05T22:26:20.239Z,96342.38
2023-05-05T22:30:32.768Z,96334.03
2023-05-05T22:34:45.670Z,96348.00
2023-05-05T22:38:58.139Z,96348.88
2023-05-05T22:43:10.622Z,96355.50
2023-05-05T22:47:23.112Z,96348.34
2023-05-05T22:51:35.962Z,96346.06
2023-05-05T22:55:59.272Z,96342.06
2023-05-05T23:00:12.602Z,96336.47
2023-05-05T23:04:25.139Z,96334.84
2023-05-05T23:08:37.663Z,96337.66
2023-05-05T23:12:58.325Z,96340.75
2023-05-05T23:17:11.265Z,96331.69
2023-05-05T23:21:23.683Z,96331.28
2023-05-05T23:25:36.390Z,96338.78
2023-05-05T23:29:48.836Z,96343.25
2023-05-05T23:34:01.291Z,96331.69
2023-05-05T23:38:13.748Z,96327.41
2023-05-05T23:42:26.171Z,96330.34
2023-05-05T23:46:38.684Z,96326.97
2023-05-05T23:50:51.215Z,96329.59
2023-05-05T23:55:03.743Z,96313.25
2023-05-05T23:59:16.935Z,96320.44
